createdAt,value
2022-08-23T00:00:30.275Z,39.16
2022-08-23T00:01:31.251Z,38.99
2022-08-23T00:02:30.295Z,39.16
2022-08-23T00:03:30.245Z,38.67
2022-08-23T00:04:34.629Z,38.83
2022-08-23T00:05:31.225Z,39.48
2022-08-23T00:06:30.217Z,38.99
2022-08-23T00:07:30.222Z,38.99
2022-08-23T00:08:30.193Z,39.16
2022-08-23T00:09:30.187Z,38.83
2022-08-23T00:10:30.175Z,38.83
2022-08-23T00:11:30.170Z,38.67
2022-08-23T00:12:30.169Z,39.48
2022-08-23T00:13:47.318Z,39.48
2022-08-23T00:14:31.134Z,38.83
2022-08-23T00:15:30.131Z,39.16
2022-08-23T00:16:30.112Z,38.83
2022-08-23T00:17:33.733Z,39.32
2022-08-23T00:18:30.098Z,39.64
2022-08-23T00:19:30.091Z,39.64
2022-08-23T00:20:30.081Z,39.32
2022-08-23T00:21:30.069Z,39.16
2022-08-23T00:22:30.076Z,39.32
2022-08-23T00:23:30.056Z,38.67
2022-08-23T00:24:30.046Z,39.16
2022-08-23T00:25:30.035Z,38.99
2022-08-23T00:26:30.029Z,39.80
2022-08-23T00:27:30.033Z,39.32
2022-08-23T00:28:30.087Z,40.12
2022-08-23T00:29:30.002Z,39.64
2022-08-23T00:30:29.991Z,39.32
2022-08-23T00:31:30.075Z,39.32
2022-08-23T00:32:30.000Z,39.32
2022-08-23T00:33:29.963Z,39.16
2022-08-23T00:34:29.952Z,39.16
2022-08-23T00:35:29.954Z,39.64
2022-08-23T00:36:29.928Z,39.48
2022-08-23T00:37:29.951Z,41.73
2022-08-23T00:38:29.917Z,41.73
2022-08-23T00:39:29.910Z,39.32
2022-08-23T00:40:29.891Z,41.89
2022-08-23T00:41:29.888Z,42.22
2022-08-23T00:42:29.896Z,41.73
2022-08-23T00:43:29.873Z,38.67
2022-08-23T00:44:29.856Z,42.38
2022-08-23T00:45:29.852Z,41.73
2022-08-23T00:46:29.841Z,39.64
2022-08-23T00:47:29.846Z,42.38
2022-08-23T00:48:29.817Z,42.06
2022-08-23T00:49:29.807Z,42.70
2022-08-23T00:50:29.796Z,42.86
2022-08-23T00:51:29.791Z,39.64
2022-08-23T00:52:29.791Z,42.54
2022-08-23T00:53:29.771Z,42.54
2022-08-23T00:54:29.749Z,38.83
2022-08-23T00:55:29.757Z,39.48
2022-08-23T00:56:29.973Z,40.61
2022-08-23T00:57:29.745Z,40.28
2022-08-23T00:58:29.719Z,39.96
2022-08-23T00:59:29.726Z,39.64
2022-08-23T01:00:29.696Z,39.64
2022-08-23T01:01:29.755Z,39.80
2022-08-23T01:02:29.695Z,39.48
2022-08-23T01:03:29.674Z,39.48
2022-08-23T01:04:30.665Z,39.48
2022-08-23T01:05:29.644Z,41.09
2022-08-23T01:06:29.636Z,42.54
2022-08-23T01:07:29.650Z,39.64
2022-08-23T01:08:29.623Z,42.86
2022-08-23T01:09:29.605Z,40.77
2022-08-23T01:10:29.605Z,40.28
2022-08-23T01:11:29.594Z,39.96
2022-08-23T01:12:32.469Z,39.64
2022-08-23T01:13:29.572Z,39.64
2022-08-23T01:14:29.559Z,40.28
2022-08-23T01:15:29.550Z,40.61
2022-08-23T01:16:29.543Z,42.54
2022-08-23T01:17:29.568Z,40.12
2022-08-23T01:18:29.533Z,42.54
2022-08-23T01:19:30.421Z,40.61
2022-08-23T01:20:29.499Z,42.86
2022-08-23T01:21:29.496Z,42.86
2022-08-23T01:22:29.480Z,42.86
2022-08-23T01:23:29.488Z,42.86
2022-08-23T01:25:07.654Z,39.80
2022-08-23T01:25:30.454Z,43.34
2022-08-23T01:26:29.443Z,43.02
2022-08-23T01:27:29.431Z,43.02
2022-08-23T01:28:29.457Z,42.70
2022-08-23T01:29:29.413Z,39.96
2022-08-23T01:30:29.408Z,43.02
2022-08-23T01:31:29.398Z,39.80
2022-08-23T01:32:29.388Z,42.54
2022-08-23T01:33:29.389Z,42.86
2022-08-23T01:34:29.359Z,43.34
2022-08-23T01:35:29.359Z,41.73
2022-08-23T01:36:29.346Z,41.89
2022-08-23T01:37:29.336Z,39.64
2022-08-23T01:38:30.301Z,40.44
2022-08-23T01:39:29.317Z,42.54
2022-08-23T01:40:29.306Z,42.86
2022-08-23T01:41:29.301Z,41.57
2022-08-23T01:42:29.285Z,39.64
2022-08-23T01:43:29.291Z,42.86
2022-08-23T01:44:29.281Z,43.18
2022-08-23T01:45:29.257Z,43.51
2022-08-23T01:46:29.248Z,42.70
2022-08-23T01:47:29.242Z,41.41
2022-08-23T01:48:29.248Z,43.02
2022-08-23T01:49:29.220Z,42.06
2022-08-23T01:50:29.317Z,41.09
2022-08-23T01:51:29.193Z,42.22
2022-08-23T01:52:29.261Z,42.38
2022-08-23T01:53:29.193Z,41.73
2022-08-23T01:54:29.169Z,42.38
2022-08-23T01:55:29.156Z,42.38
2022-08-23T01:56:38.096Z,43.02
2022-08-23T01:57:30.141Z,42.06
2022-08-23T01:58:29.146Z,41.57
2022-08-23T01:59:29.114Z,42.22
2022-08-23T02:00:30.074Z,42.54
2022-08-23T02:01:29.109Z,42.86
2022-08-23T02:02:29.085Z,41.57
2022-08-23T02:03:29.095Z,42.06
2022-08-23T02:04:29.068Z,41.89
2022-08-23T02:05:29.053Z,42.38
2022-08-23T02:06:29.060Z,42.22
2022-08-23T02:07:29.041Z,42.22
2022-08-23T02:08:29.046Z,41.73
2022-08-23T02:09:29.017Z,43.18
2022-08-23T02:10:29.008Z,41.73
2022-08-23T02:11:28.994Z,42.54
2022-08-23T02:12:28.991Z,42.70
2022-08-23T02:13:29.001Z,42.86
2022-08-23T02:14:28.970Z,41.57
2022-08-23T02:15:28.956Z,42.22
2022-08-23T02:16:28.950Z,42.38
2022-08-23T02:17:28.938Z,40.12
2022-08-23T02:18:28.939Z,42.54
2022-08-23T02:19:28.918Z,42.70
2022-08-23T02:20:28.912Z,43.02
2022-08-23T02:21:28.899Z,39.96
2022-08-23T02:22:28.889Z,43.02
2022-08-23T02:23:28.893Z,42.86
2022-08-23T02:24:28.865Z,40.28
2022-08-23T02:25:28.859Z,42.38
2022-08-23T02:26:31.274Z,43.51
2022-08-23T02:27:28.837Z,42.86
2022-08-23T02:28:28.841Z,40.12
2022-08-23T02:29:28.822Z,42.54
2022-08-23T02:30:28.826Z,43.02
2022-08-23T02:31:28.795Z,43.18
2022-08-23T02:32:28.797Z,40.28
2022-08-23T02:33:28.823Z,43.18
2022-08-23T02:34:35.547Z,43.51
2022-08-23T02:35:28.787Z,40.61
2022-08-23T02:36:28.783Z,41.09
2022-08-23T02:37:28.774Z,43.51
2022-08-23T02:38:28.782Z,40.28
2022-08-23T02:39:28.752Z,43.99
2022-08-23T02:40:28.746Z,43.67
2022-08-23T02:41:28.732Z,43.83
2022-08-23T02:42:28.726Z,43.18
2022-08-23T02:43:28.742Z,40.44
2022-08-23T02:44:28.713Z,43.02
2022-08-23T02:45:28.692Z,41.57
2022-08-23T02:46:28.682Z,43.51
2022-08-23T02:47:28.669Z,43.99
2022-08-23T02:48:28.663Z,43.18
2022-08-23T02:49:28.672Z,43.34
2022-08-23T02:50:28.650Z,40.44
2022-08-23T02:51:28.632Z,43.34
2022-08-23T02:52:28.627Z,43.67
2022-08-23T02:53:28.623Z,43.51
2022-08-23T02:54:28.625Z,43.83
2022-08-23T02:55:28.602Z,43.51
2022-08-23T02:56:28.597Z,42.22
2022-08-23T02:57:28.577Z,42.86
2022-08-23T02:58:28.574Z,42.86
2022-08-23T02:59:28.575Z,42.06
2022-08-23T03:00:28.555Z,42.54
2022-08-23T03:01:28.543Z,42.38
2022-08-23T03:02:28.586Z,42.06
2022-08-23T03:03:28.525Z,42.86
2022-08-23T03:04:28.529Z,43.02
2022-08-23T03:05:28.501Z,41.41
2022-08-23T03:06:28.492Z,42.38
2022-08-23T03:07:28.481Z,43.18
2022-08-23T03:08:28.474Z,43.67
2022-08-23T03:09:28.486Z,42.22
2022-08-23T03:10:28.451Z,42.38
2022-08-23T03:11:28.444Z,45.12
2022-08-23T03:12:28.436Z,42.70
2022-08-23T03:13:28.426Z,42.54
2022-08-23T03:14:28.451Z,42.70
2022-08-23T03:15:28.405Z,43.02
2022-08-23T03:16:28.403Z,43.34
2022-08-23T03:17:28.386Z,43.51
2022-08-23T03:18:28.391Z,42.70
2022-08-23T03:19:28.391Z,42.54
2022-08-23T03:20:28.355Z,42.06
2022-08-23T03:21:28.348Z,43.67
2022-08-23T03:22:28.342Z,42.22
2022-08-23T03:23:28.322Z,41.73
2022-08-23T03:24:28.339Z,42.86
2022-08-23T03:25:28.313Z,44.79
2022-08-23T03:26:28.304Z,42.06
2022-08-23T03:27:28.308Z,43.02
2022-08-23T03:28:28.299Z,42.54
2022-08-23T03:29:28.287Z,41.41
2022-08-23T03:30:28.247Z,46.25
2022-08-23T03:31:29.254Z,42.86
2022-08-23T03:32:28.217Z,42.38
2022-08-23T03:33:28.198Z,43.51
2022-08-23T03:34:28.208Z,42.54
2022-08-23T03:35:28.185Z,42.54
2022-08-23T03:36:28.482Z,43.02
2022-08-23T03:37:28.164Z,42.38
2022-08-23T03:38:28.159Z,43.83
2022-08-23T03:39:28.160Z,42.70
2022-08-23T03:40:28.143Z,42.06
2022-08-23T03:41:28.125Z,41.73
2022-08-23T03:42:30.712Z,46.73
2022-08-23T03:43:28.106Z,43.51
2022-08-23T03:44:28.119Z,42.54
2022-08-23T03:45:28.092Z,41.09
2022-08-23T03:46:32.081Z,43.83
2022-08-23T03:47:29.081Z,42.54
2022-08-23T03:48:28.066Z,43.67
2022-08-23T03:49:28.072Z,41.73
2022-08-23T03:50:28.053Z,43.18
2022-08-23T03:51:28.041Z,43.34
2022-08-23T03:52:28.031Z,43.34
2022-08-23T03:53:28.018Z,41.09
2022-08-23T03:54:28.020Z,43.51
2022-08-23T03:55:27.989Z,43.34
2022-08-23T03:56:27.994Z,44.79
2022-08-23T03:57:27.973Z,43.51
2022-08-23T03:58:27.972Z,43.34
2022-08-23T03:59:27.971Z,41.41
2022-08-23T04:00:27.951Z,40.61
2022-08-23T04:01:28.700Z,43.51
2022-08-23T04:02:27.937Z,44.47
2022-08-23T04:03:27.923Z,42.86
2022-08-23T04:04:27.930Z,42.70
2022-08-23T04:05:27.906Z,44.79
2022-08-23T04:06:27.896Z,43.34
2022-08-23T04:07:27.882Z,43.34
2022-08-23T04:08:33.827Z,46.73
2022-08-23T04:09:28.885Z,41.41
2022-08-23T04:10:27.857Z,41.89
2022-08-23T04:11:27.847Z,43.34
2022-08-23T04:12:27.835Z,47.86
2022-08-23T04:13:27.832Z,45.44
2022-08-23T04:14:27.829Z,43.99
2022-08-23T04:15:27.807Z,42.70
2022-08-23T04:16:27.793Z,43.34
2022-08-23T04:17:27.780Z,43.67
2022-08-23T04:18:27.781Z,43.51
2022-08-23T04:19:27.783Z,44.79
2022-08-23T04:20:27.755Z,43.18
2022-08-23T04:21:27.741Z,44.31
2022-08-23T04:22:27.739Z,43.34
2022-08-23T04:23:27.731Z,44.15
2022-08-23T04:24:27.731Z,44.63
2022-08-23T04:25:34.864Z,43.18
2022-08-23T04:26:30.369Z,42.54
2022-08-23T04:27:27.686Z,45.12
2022-08-23T04:28:27.676Z,43.51
2022-08-23T04:29:34.625Z,48.66
2022-08-23T04:30:27.658Z,45.76
2022-08-23T04:31:27.645Z,43.34
2022-08-23T04:32:28.740Z,43.18
2022-08-23T04:33:27.628Z,44.47
2022-08-23T04:34:28.632Z,44.96
2022-08-23T04:35:27.609Z,43.34
2022-08-23T04:36:27.603Z,44.96
2022-08-23T04:37:28.589Z,43.67
2022-08-23T04:38:27.588Z,46.73
2022-08-23T04:39:27.602Z,48.02
2022-08-23T04:40:27.665Z,45.44
2022-08-23T04:41:27.547Z,45.92
2022-08-23T04:42:27.543Z,49.95
2022-08-23T04:43:27.534Z,46.89
2022-08-23T04:44:27.518Z,50.27
2022-08-23T04:45:27.767Z,46.41
2022-08-23T04:46:27.498Z,48.02
2022-08-23T04:47:27.486Z,46.41
2022-08-23T04:48:27.480Z,42.54
2022-08-23T04:49:27.492Z,41.09
2022-08-23T04:50:27.476Z,41.09
2022-08-23T04:51:27.445Z,42.86
2022-08-23T04:52:27.436Z,47.53
2022-08-23T04:53:27.428Z,44.96
2022-08-23T04:54:27.418Z,47.53
2022-08-23T04:55:27.432Z,41.89
2022-08-23T04:56:27.392Z,41.73
2022-08-23T04:57:27.387Z,43.67
2022-08-23T04:58:27.387Z,43.83
2022-08-23T04:59:27.366Z,50.43
2022-08-23T05:00:27.968Z,48.50
2022-08-23T05:01:27.451Z,46.73
2022-08-23T05:02:27.338Z,45.44
2022-08-23T05:03:27.325Z,44.79
2022-08-23T05:04:27.333Z,48.82
2022-08-23T05:05:27.318Z,46.57
2022-08-23T05:06:27.297Z,46.25
2022-08-23T05:07:30.982Z,48.02
2022-08-23T05:08:28.287Z,46.57
2022-08-23T05:09:27.265Z,45.60
2022-08-23T05:10:27.589Z,46.25
2022-08-23T05:11:27.246Z,44.79
2022-08-23T05:12:27.239Z,43.34
2022-08-23T05:13:27.231Z,45.44
2022-08-23T05:14:27.222Z,43.18
2022-08-23T05:15:27.410Z,42.54
2022-08-23T05:16:27.203Z,43.51
2022-08-23T05:17:27.186Z,48.66
2022-08-23T05:18:27.189Z,44.15
2022-08-23T05:19:27.191Z,43.02
2022-08-23T05:20:27.187Z,44.96
2022-08-23T05:21:27.149Z,41.09
2022-08-23T05:22:27.147Z,43.99
2022-08-23T05:23:32.068Z,40.77
2022-08-23T05:24:27.119Z,42.38
2022-08-23T05:25:27.136Z,42.06
2022-08-23T05:26:27.103Z,41.89
2022-08-23T05:27:27.090Z,41.57
2022-08-23T05:28:27.079Z,46.73
2022-08-23T05:29:27.072Z,42.06
2022-08-23T05:30:27.106Z,46.41
2022-08-23T05:31:27.048Z,43.51
2022-08-23T05:32:30.343Z,45.60
2022-08-23T05:33:27.027Z,46.25
2022-08-23T05:34:27.021Z,45.44
2022-08-23T05:35:27.024Z,40.44
2022-08-23T05:36:27.007Z,41.57
2022-08-23T05:37:26.993Z,45.28
2022-08-23T05:38:26.986Z,45.60
2022-08-23T05:39:36.155Z,44.79
2022-08-23T05:40:26.986Z,41.41
2022-08-23T05:41:37.820Z,44.79
2022-08-23T05:42:27.945Z,44.47
2022-08-23T05:43:26.968Z,45.76
2022-08-23T05:44:26.935Z,40.44
2022-08-23T05:45:26.946Z,39.96
2022-08-23T05:46:28.571Z,41.41
2022-08-23T05:47:26.904Z,44.63
2022-08-23T05:48:26.890Z,44.79
2022-08-23T05:49:26.879Z,43.51
2022-08-23T05:50:26.882Z,42.70
2022-08-23T05:51:26.877Z,46.41
2022-08-23T05:52:26.857Z,45.76
2022-08-23T05:53:26.842Z,40.93
2022-08-23T05:54:26.839Z,43.67
2022-08-23T05:55:27.569Z,39.80
2022-08-23T05:56:27.832Z,40.28
2022-08-23T05:57:26.809Z,39.96
2022-08-23T05:58:26.795Z,40.28
2022-08-23T05:59:26.790Z,40.12
2022-08-23T06:00:37.845Z,41.57
2022-08-23T06:01:27.808Z,45.12
2022-08-23T06:02:26.802Z,45.76
2022-08-23T06:03:26.743Z,40.44
2022-08-23T06:04:26.740Z,44.31
2022-08-23T06:05:26.730Z,41.41
2022-08-23T06:06:37.499Z,39.80
2022-08-23T06:07:27.707Z,40.61
2022-08-23T06:08:26.698Z,41.57
2022-08-23T06:09:26.686Z,45.92
2022-08-23T06:10:26.678Z,42.38
2022-08-23T06:11:26.688Z,40.77
2022-08-23T06:12:26.658Z,40.77
2022-08-23T06:13:26.655Z,46.89
2022-08-23T06:14:26.722Z,42.86
2022-08-23T06:15:26.663Z,40.12
2022-08-23T06:16:26.649Z,39.80
2022-08-23T06:17:26.621Z,39.64
2022-08-23T06:18:26.605Z,40.61
2022-08-23T06:19:26.597Z,40.61
2022-08-23T06:20:26.653Z,42.38
2022-08-23T06:21:26.590Z,41.25
2022-08-23T06:22:26.566Z,40.77
2022-08-23T06:23:26.568Z,39.64
2022-08-23T06:24:26.546Z,40.77
2022-08-23T06:25:26.536Z,40.93
2022-08-23T06:26:26.548Z,44.31
2022-08-23T06:27:26.520Z,43.02
2022-08-23T06:28:26.544Z,45.44
2022-08-23T06:29:26.562Z,42.54
2022-08-23T06:30:26.513Z,45.44
2022-08-23T06:31:26.606Z,43.02
2022-08-23T06:32:26.494Z,43.18
2022-08-23T06:33:26.473Z,43.02
2022-08-23T06:34:26.438Z,47.70
2022-08-23T06:35:38.167Z,44.15
2022-08-23T06:36:27.460Z,42.38
2022-08-23T06:37:26.417Z,42.86
2022-08-23T06:38:26.400Z,42.22
2022-08-23T06:39:26.399Z,44.31
2022-08-23T06:40:26.478Z,43.02
2022-08-23T06:41:26.399Z,41.57
2022-08-23T06:42:41.253Z,45.12
2022-08-23T06:43:27.362Z,43.51
2022-08-23T06:44:26.347Z,46.57
2022-08-23T06:45:33.842Z,49.15
2022-08-23T06:46:28.228Z,50.43
2022-08-23T06:47:26.320Z,44.96
2022-08-23T06:48:26.314Z,42.38
2022-08-23T06:49:26.297Z,43.83
2022-08-23T06:50:26.354Z,44.79
2022-08-23T06:51:26.552Z,44.47
2022-08-23T06:52:26.268Z,41.09
2022-08-23T06:53:26.261Z,41.41
2022-08-23T06:54:26.426Z,41.09
2022-08-23T06:55:26.247Z,43.18
2022-08-23T06:56:26.253Z,44.96
2022-08-23T06:57:26.225Z,42.22
2022-08-23T06:58:26.212Z,42.06
2022-08-23T06:59:26.200Z,42.86
2022-08-23T07:00:26.283Z,43.67
2022-08-23T07:01:44.679Z,43.67
2022-08-23T07:02:27.262Z,41.09
2022-08-23T07:03:26.165Z,37.54
2022-08-23T07:04:26.150Z,43.83
2022-08-23T07:05:26.151Z,41.57
2022-08-23T07:06:26.159Z,40.12
2022-08-23T07:07:39.697Z,36.90
2022-08-23T07:08:27.110Z,39.96
2022-08-23T07:09:26.103Z,42.86
2022-08-23T07:10:26.103Z,39.64
2022-08-23T07:11:26.104Z,43.67
2022-08-23T07:12:26.071Z,42.54
2022-08-23T07:13:26.061Z,44.47
2022-08-23T07:14:26.049Z,40.93
2022-08-23T07:15:26.044Z,46.89
2022-08-23T07:16:26.104Z,45.28
2022-08-23T07:17:26.037Z,43.51
2022-08-23T07:18:26.008Z,38.99
2022-08-23T07:19:28.949Z,38.19
2022-08-23T07:20:25.988Z,39.80
2022-08-23T07:21:25.988Z,49.31
2022-08-23T07:22:25.986Z,43.83
2022-08-23T07:23:25.973Z,39.96
2022-08-23T07:24:30.642Z,45.12
2022-08-23T07:25:26.953Z,40.93
2022-08-23T07:26:25.940Z,42.06
2022-08-23T07:27:25.948Z,42.22
2022-08-23T07:28:25.919Z,43.34
2022-08-23T07:29:25.910Z,43.02
2022-08-23T07:30:25.899Z,39.64
2022-08-23T07:31:25.971Z,39.80
2022-08-23T07:32:25.878Z,40.61
2022-08-23T07:33:25.872Z,42.22
2022-08-23T07:34:25.856Z,43.34
2022-08-23T07:35:25.846Z,42.38
2022-08-23T07:36:25.851Z,42.54
2022-08-23T07:37:25.829Z,43.02
2022-08-23T07:38:30.581Z,43.02
2022-08-23T07:39:25.807Z,46.73
2022-08-23T07:40:27.763Z,42.22
2022-08-23T07:41:25.807Z,39.16
2022-08-23T07:42:25.783Z,39.16
2022-08-23T07:43:25.774Z,41.57
2022-08-23T07:44:27.366Z,43.83
2022-08-23T07:45:25.754Z,42.06
2022-08-23T07:46:25.765Z,43.83
2022-08-23T07:47:25.740Z,48.02
2022-08-23T07:48:50.266Z,39.96
2022-08-23T07:49:29.312Z,43.02
2022-08-23T07:50:25.694Z,43.34
2022-08-23T07:51:25.692Z,43.02
2022-08-23T07:52:25.697Z,40.61
2022-08-23T07:53:37.281Z,38.83
2022-08-23T07:54:26.656Z,39.80
2022-08-23T07:55:25.653Z,36.58
2022-08-23T07:56:25.649Z,36.25
2022-08-23T07:57:25.647Z,38.35
2022-08-23T07:58:25.622Z,37.71
2022-08-23T07:59:25.617Z,39.32
2022-08-23T08:00:25.605Z,35.93
2022-08-23T08:01:25.670Z,36.90
2022-08-23T08:02:25.648Z,36.58
2022-08-23T08:03:25.586Z,42.54
2022-08-23T08:04:25.569Z,36.42
2022-08-23T08:05:25.564Z,36.25
2022-08-23T08:06:25.549Z,37.71
2022-08-23T08:07:25.559Z,36.90
2022-08-23T08:08:25.542Z,43.02
2022-08-23T08:09:25.518Z,36.74
2022-08-23T08:10:25.513Z,40.44
2022-08-23T08:11:25.503Z,41.25
2022-08-23T08:12:25.504Z,37.54
2022-08-23T08:13:25.496Z,35.13
2022-08-23T08:14:25.474Z,34.64
2022-08-23T08:15:25.464Z,42.54
2022-08-23T08:16:25.507Z,35.29
2022-08-23T08:17:27.534Z,35.61
2022-08-23T08:18:25.437Z,41.57
2022-08-23T08:19:25.442Z,35.77
2022-08-23T08:20:25.448Z,43.67
2022-08-23T08:21:25.410Z,43.51
2022-08-23T08:22:25.413Z,41.41
2022-08-23T08:23:25.431Z,40.44
2022-08-23T08:24:25.368Z,41.09
2022-08-23T08:25:25.376Z,40.61
2022-08-23T08:26:25.358Z,40.28
2022-08-23T08:27:25.368Z,42.54
2022-08-23T08:28:25.335Z,39.80
2022-08-23T08:29:25.337Z,39.48
2022-08-23T08:30:26.228Z,41.73
2022-08-23T08:31:25.336Z,40.12
2022-08-23T08:32:25.350Z,35.61
2022-08-23T08:33:25.294Z,36.09
2022-08-23T08:34:26.281Z,36.09
2022-08-23T08:35:25.301Z,38.67
2022-08-23T08:36:25.261Z,38.03
2022-08-23T08:37:25.261Z,36.42
2022-08-23T08:38:25.377Z,33.84
2022-08-23T08:39:25.239Z,35.61
2022-08-23T08:40:25.226Z,37.38
2022-08-23T08:41:25.217Z,37.38
2022-08-23T08:42:25.223Z,37.22
2022-08-23T08:43:25.219Z,36.25
2022-08-23T08:44:25.466Z,44.96
2022-08-23T08:45:26.392Z,34.32
2022-08-23T08:46:26.005Z,34.32
2022-08-23T08:47:25.181Z,41.41
2022-08-23T08:48:25.164Z,40.77
2022-08-23T08:49:25.150Z,38.03
2022-08-23T08:50:25.135Z,36.74
2022-08-23T08:51:25.149Z,35.61
2022-08-23T08:52:25.152Z,33.52
2022-08-23T08:53:25.116Z,33.68
2022-08-23T08:54:25.100Z,34.00
2022-08-23T08:55:25.099Z,31.42
2022-08-23T08:56:25.076Z,34.00
2022-08-23T08:57:27.504Z,32.87
2022-08-23T08:58:25.063Z,31.10
2022-08-23T08:59:25.059Z,29.49
2022-08-23T09:00:25.047Z,32.87
2022-08-23T09:01:25.063Z,37.06
2022-08-23T09:02:32.755Z,35.29
2022-08-23T09:03:26.066Z,35.29
2022-08-23T09:04:25.022Z,36.42
2022-08-23T09:05:25.005Z,33.35
2022-08-23T09:06:24.989Z,34.00
2022-08-23T09:07:30.561Z,33.35
2022-08-23T09:08:25.974Z,38.19
2022-08-23T09:09:24.966Z,37.22
2022-08-23T09:10:25.035Z,35.29
2022-08-23T09:11:24.949Z,34.00
2022-08-23T09:12:24.958Z,37.71
2022-08-23T09:13:24.931Z,35.77
2022-08-23T09:14:24.919Z,41.41
2022-08-23T09:15:24.912Z,34.00
2022-08-23T09:16:24.901Z,33.68
2022-08-23T09:17:24.903Z,38.35
2022-08-23T09:18:24.902Z,33.84
2022-08-23T09:19:25.156Z,36.42
2022-08-23T09:20:24.866Z,37.38
2022-08-23T09:21:24.861Z,40.12
2022-08-23T09:22:24.854Z,33.84
2022-08-23T09:23:24.867Z,39.64
2022-08-23T09:24:24.835Z,38.67
2022-08-23T09:25:24.833Z,34.80
2022-08-23T09:26:24.819Z,43.67
2022-08-23T09:27:24.895Z,40.93
2022-08-23T09:28:24.816Z,35.93
2022-08-23T09:29:24.798Z,34.48
2022-08-23T09:30:24.792Z,35.13
2022-08-23T09:31:24.842Z,35.93
2022-08-23T09:32:24.768Z,29.49
2022-08-23T09:33:26.219Z,34.00
2022-08-23T09:34:24.761Z,29.81
2022-08-23T09:35:24.749Z,29.97
2022-08-23T09:36:24.740Z,35.93
2022-08-23T09:37:24.731Z,33.84
2022-08-23T09:38:24.734Z,39.16
2022-08-23T09:39:27.296Z,39.48
2022-08-23T09:40:25.705Z,33.52
2022-08-23T09:41:24.693Z,33.52
2022-08-23T09:42:24.690Z,37.06
2022-08-23T09:43:24.701Z,34.48
2022-08-23T09:44:24.668Z,30.62
2022-08-23T09:45:24.668Z,34.32
2022-08-23T09:46:24.690Z,28.68
2022-08-23T09:47:24.652Z,34.48
2022-08-23T09:48:28.164Z,31.42
2022-08-23T09:49:25.635Z,30.94
2022-08-23T09:50:24.619Z,31.74
2022-08-23T09:51:25.171Z,28.84
2022-08-23T09:52:24.607Z,39.32
2022-08-23T09:53:24.599Z,31.42
2022-08-23T09:54:24.602Z,32.07
2022-08-23T09:55:24.597Z,26.59
2022-08-23T09:56:24.575Z,26.59
2022-08-23T09:57:24.570Z,31.42
2022-08-23T09:58:24.560Z,27.07
2022-08-23T09:59:26.892Z,30.62
2022-08-23T10:00:24.540Z,36.42
2022-08-23T10:01:24.624Z,28.68
2022-08-23T10:02:24.531Z,31.10
2022-08-23T10:03:24.524Z,34.64
2022-08-23T10:04:24.616Z,30.45
2022-08-23T10:05:24.509Z,38.67
2022-08-23T10:06:24.500Z,28.52
2022-08-23T10:07:25.492Z,29.65
2022-08-23T10:08:24.485Z,27.88
2022-08-23T10:09:24.490Z,34.64
2022-08-23T10:10:24.470Z,29.17
2022-08-23T10:11:24.465Z,29.81
2022-08-23T10:12:24.458Z,35.77
2022-08-23T10:13:24.441Z,29.00
2022-08-23T10:14:28.677Z,27.23
2022-08-23T10:15:25.427Z,27.07
2022-08-23T10:16:24.488Z,36.25
2022-08-23T10:17:24.414Z,34.48
2022-08-23T10:18:24.415Z,35.29
2022-08-23T10:19:24.427Z,32.39
2022-08-23T10:20:24.396Z,30.94
2022-08-23T10:21:24.496Z,33.84
2022-08-23T10:22:24.379Z,29.97
2022-08-23T10:23:24.375Z,28.04
2022-08-23T10:24:24.382Z,32.07
2022-08-23T10:25:24.357Z,29.17
2022-08-23T10:26:24.352Z,30.13
2022-08-23T10:27:24.344Z,33.52
2022-08-23T10:28:24.341Z,33.84
2022-08-23T10:29:24.344Z,40.28
2022-08-23T10:30:24.326Z,26.59
2022-08-23T10:31:24.343Z,26.91
2022-08-23T10:32:24.322Z,27.55
2022-08-23T10:33:24.301Z,28.20
2022-08-23T10:34:24.322Z,28.04
2022-08-23T10:35:24.309Z,32.39
2022-08-23T10:36:24.292Z,35.45
2022-08-23T10:37:24.282Z,30.13
2022-08-23T10:38:24.276Z,30.62
2022-08-23T10:39:24.282Z,30.13
2022-08-23T10:40:24.300Z,28.36
2022-08-23T10:41:24.246Z,31.58
2022-08-23T10:42:24.249Z,33.19
2022-08-23T10:43:24.238Z,29.97
2022-08-23T10:44:24.244Z,38.03
2022-08-23T10:45:24.221Z,39.48
2022-08-23T10:46:24.279Z,28.84
2022-08-23T10:47:24.207Z,29.17
2022-08-23T10:48:24.222Z,29.65
2022-08-23T10:49:24.230Z,35.13
2022-08-23T10:50:24.184Z,29.97
2022-08-23T10:51:31.518Z,29.33
2022-08-23T10:52:25.175Z,29.00
2022-08-23T10:53:24.160Z,31.10
2022-08-23T10:54:24.180Z,29.97
2022-08-23T10:55:24.144Z,29.97
2022-08-23T10:56:24.133Z,39.64
2022-08-23T10:57:24.127Z,43.34
2022-08-23T10:58:24.117Z,39.16
2022-08-23T10:59:24.271Z,32.55
2022-08-23T11:00:24.112Z,32.39
2022-08-23T11:01:24.118Z,33.84
2022-08-23T11:02:24.158Z,37.38
2022-08-23T11:03:28.624Z,38.67
2022-08-23T11:04:24.087Z,32.39
2022-08-23T11:05:24.063Z,38.35
2022-08-23T11:06:24.063Z,38.83
2022-08-23T11:07:24.045Z,32.39
2022-08-23T11:08:24.042Z,36.74
2022-08-23T11:09:25.810Z,35.45
2022-08-23T11:10:24.050Z,40.44
2022-08-23T11:11:24.010Z,42.38
2022-08-23T11:12:24.009Z,46.08
2022-08-23T11:13:24.001Z,37.06
2022-08-23T11:14:24.016Z,47.21
2022-08-23T11:15:23.978Z,42.54
2022-08-23T11:16:23.976Z,44.96
2022-08-23T11:17:23.981Z,45.12
2022-08-23T11:18:23.954Z,45.76
2022-08-23T11:19:23.940Z,47.70
2022-08-23T11:20:23.958Z,43.51
2022-08-23T11:21:23.929Z,41.25
2022-08-23T11:22:23.927Z,46.25
2022-08-23T11:23:23.916Z,45.92
2022-08-23T11:24:23.906Z,49.31
2022-08-23T11:25:24.014Z,41.73
2022-08-23T11:26:23.886Z,41.41
2022-08-23T11:27:23.876Z,38.03
2022-08-23T11:28:23.870Z,37.06
2022-08-23T11:29:23.861Z,39.80
2022-08-23T11:30:23.922Z,41.09
2022-08-23T11:31:23.923Z,37.22
2022-08-23T11:32:28.009Z,37.22
2022-08-23T11:33:23.837Z,38.83
2022-08-23T11:34:29.335Z,36.74
2022-08-23T11:35:24.824Z,36.42
2022-08-23T11:36:23.814Z,37.06
2022-08-23T11:37:23.792Z,38.51
2022-08-23T11:38:24.847Z,40.12
2022-08-23T11:39:25.520Z,42.86
2022-08-23T11:40:23.828Z,44.15
2022-08-23T11:41:23.761Z,38.83
2022-08-23T11:42:23.751Z,37.06
2022-08-23T11:43:23.744Z,38.83
2022-08-23T11:44:23.743Z,37.06
2022-08-23T11:45:23.737Z,42.38
2022-08-23T11:46:23.745Z,47.37
2022-08-23T11:47:23.719Z,42.54
2022-08-23T11:48:23.704Z,42.06
2022-08-23T11:49:23.694Z,43.51
2022-08-23T11:50:23.705Z,43.02
2022-08-23T11:51:23.673Z,42.54
2022-08-23T11:52:23.671Z,43.99
2022-08-23T11:53:23.660Z,39.96
2022-08-23T11:54:23.657Z,39.48
2022-08-23T11:55:24.310Z,44.31
2022-08-23T11:56:23.641Z,41.89
2022-08-23T11:57:23.626Z,39.64
2022-08-23T11:58:23.622Z,44.47
2022-08-23T11:59:23.804Z,37.38
2022-08-23T12:00:27.786Z,43.18
2022-08-23T12:01:24.591Z,42.06
2022-08-23T12:02:23.650Z,38.19
2022-08-23T12:03:23.622Z,37.54
2022-08-23T12:04:23.566Z,42.06
2022-08-23T12:05:23.570Z,43.18
2022-08-23T12:06:23.546Z,43.67
2022-08-23T12:07:23.537Z,42.06
2022-08-23T12:08:23.580Z,38.03
2022-08-23T12:09:23.517Z,40.61
2022-08-23T12:10:23.531Z,46.57
2022-08-23T12:11:23.496Z,38.35
2022-08-23T12:12:23.497Z,36.09
2022-08-23T12:13:23.484Z,35.13
2022-08-23T12:14:23.472Z,36.42
2022-08-23T12:15:23.473Z,48.18
2022-08-23T12:16:23.525Z,36.42
2022-08-23T12:17:23.454Z,37.71
2022-08-23T12:18:25.065Z,38.19
2022-08-23T12:19:23.427Z,35.61
2022-08-23T12:20:24.325Z,47.05
2022-08-23T12:21:23.427Z,39.80
2022-08-23T12:22:23.400Z,37.71
2022-08-23T12:23:23.400Z,49.63
2022-08-23T12:24:23.386Z,43.67
2022-08-23T12:25:23.493Z,36.58
2022-08-23T12:26:23.368Z,40.44
2022-08-23T12:27:23.360Z,37.06
2022-08-23T12:28:23.353Z,37.22
2022-08-23T12:29:23.345Z,36.90
2022-08-23T12:30:23.398Z,37.71
2022-08-23T12:31:23.337Z,38.19
2022-08-23T12:32:23.969Z,36.58
2022-08-23T12:33:23.336Z,38.03
2022-08-23T12:34:23.304Z,41.09
2022-08-23T12:35:23.295Z,38.19
2022-08-23T12:36:23.273Z,45.12
2022-08-23T12:37:23.264Z,43.51
2022-08-23T12:38:23.249Z,38.03
2022-08-23T12:39:23.237Z,37.22
2022-08-23T12:40:23.272Z,36.74
2022-08-23T12:41:23.231Z,39.32
2022-08-23T12:42:23.230Z,42.38
2022-08-23T12:43:23.215Z,45.44
2022-08-23T12:44:23.209Z,44.31
2022-08-23T12:45:23.213Z,39.16
2022-08-23T12:46:23.273Z,38.51
2022-08-23T12:47:23.167Z,36.90
2022-08-23T12:48:23.160Z,46.25
2022-08-23T12:49:23.155Z,37.06
2022-08-23T12:50:23.162Z,37.71
2022-08-23T12:51:24.135Z,38.83
2022-08-23T12:52:23.146Z,40.77